sensor_id;sensor_type;location;lat;lon;timestamp;pressure;altitude;pressure_sealevel;temperature;humidity
48774;BME280;34576;0.000;0.000;2022-11-25T00:06:22;96496.34;;;16.83;71.88
48774;BME280;34576;0.000;0.000;2022-11-25T00:13:23;96482.28;;;16.88;71.64
48774;BME280;34576;0.000;0.000;2022-11-25T00:20:23;96505.66;;;16.91;71.00
48774;BME280;34576;0.000;0.000;2022-11-25T00:27:23;96505.66;;;16.91;71.16
48774;BME280;34576;0.000;0.000;2022-11-25T00:34:24;96511.22;;;16.89;71.36
48774;BME280;34576;0.000;0.000;2022-11-25T00:41:25;96500.59;;;16.89;71.09
48774;BME280;34576;0.000;0.000;2022-11-25T00:48:44;96513.88;;;16.95;71.00
48774;BME280;34576;0.000;0.000;2022-11-25T00:55:44;96509.63;;;16.88;71.42
48774;BME280;34576;0.000;0.000;2022-11-25T01:03:03;96503.78;;;16.91;71.31
48774;BME280;34576;0.000;0.000;2022-11-25T01:10:06;96494.75;;;16.93;71.10
48774;BME280;34576;0.000;0.000;2022-11-25T01:17:06;96494.75;;;16.93;71.20
48774;BME280;34576;0.000;0.000;2022-11-25T01:24:07;96482.78;;;16.90;71.51
48774;BME280;34576;0.000;0.000;2022-11-25T01:31:08;96493.69;;;16.88;71.05
48774;BME280;34576;0.000;0.000;2022-11-25T01:38:09;96496.59;;;16.87;71.38
48774;BME280;34576;0.000;0.000;2022-11-25T01:59:30;96496.34;;;16.88;71.74
48774;BME280;34576;0.000;0.000;2022-11-25T02:06:37;96481.72;;;16.86;71.77
48774;BME280;34576;0.000;0.000;2022-11-25T02:13:39;96500.06;;;16.82;71.92
48774;BME280;34576;0.000;0.000;2022-11-25T02:20:39;96494.75;;;16.82;72.42
48774;BME280;34576;0.000;0.000;2022-11-25T02:27:41;96494.25;;;16.70;71.52
48774;BME280;34576;0.000;0.000;2022-11-25T02:34:46;96498.75;;;16.85;71.90
48774;BME280;34576;0.000;0.000;2022-11-25T02:41:48;96501.41;;;16.80;71.55
48774;BME280;34576;0.000;0.000;2022-11-25T02:48:52;96496.34;;;16.83;74.44
48774;BME280;34576;0.000;0.000;2022-11-25T02:55:53;96479.84;;;16.91;75.12
48774;BME280;34576;0.000;0.000;2022-11-25T03:02:53;96479.34;;;16.89;75.23
48774;BME280;34576;0.000;0.000;2022-11-25T03:09:54;96470.31;;;16.90;75.39
48774;BME280;34576;0.000;0.000;2022-11-25T03:16:54;96468.69;;;16.84;75.78
48774;BME280;34576;0.000;0.000;2022-11-25T03:23:55;96474.03;;;16.89;76.18
48774;BME280;34576;0.000;0.000;2022-11-25T03:30:55;96465.00;;;16.90;76.61
48774;BME280;34576;0.000;0.000;2022-11-25T03:37:58;96472.94;;;16.96;76.88
48774;BME280;34576;0.000;0.000;2022-11-25T03:44:59;96481.41;;;17.03;76.86
48774;BME280;34576;0.000;0.000;2022-11-25T03:51:59;96485.09;;;17.07;76.70
48774;BME280;34576;0.000;0.000;2022-11-25T03:59:00;96480.34;;;17.04;76.91
48774;BME280;34576;0.000;0.000;2022-11-25T04:06:00;96477.13;;;17.07;77.03
48774;BME280;34576;0.000;0.000;2022-11-25T04:13:02;96477.41;;;17.05;77.76
48774;BME280;34576;0.000;0.000;2022-11-25T04:20:09;96473.16;;;17.04;77.56
48774;BME280;34576;0.000;0.000;2022-11-25T04:27:12;96472.09;;;17.05;77.49
48774;BME280;34576;0.000;0.000;2022-11-25T04:34:12;96461.72;;;17.09;77.69
48774;BME280;34576;0.000;0.000;2022-11-25T04:41:13;96468.59;;;17.10;77.86
48774;BME280;34576;0.000;0.000;2022-11-25T04:48:16;96463.88;;;17.02;77.86
48774;BME280;34576;0.000;0.000;2022-11-25T04:55:17;96465.72;;;17.01;77.77
48774;BME280;34576;0.000;0.000;2022-11-25T05:02:20;96470.78;;;17.03;77.52
48774;BME280;34576;0.000;0.000;2022-11-25T05:09:27;96486.72;;;17.03;77.63
48774;BME280;34576;0.000;0.000;2022-11-25T05:16:39;96514.66;;;17.00;77.30
48774;BME280;34576;0.000;0.000;2022-11-25T05:23:40;96529.22;;;17.08;76.99
48774;BME280;34576;0.000;0.000;2022-11-25T05:30:40;96543.06;;;17.05;76.14
48774;BME280;34576;0.000;0.000;2022-11-25T05:37:42;96552.66;;;16.96;71.29
48774;BME280;34576;0.000;0.000;2022-11-25T05:44:44;96552.63;;;17.01;70.81
48774;BME280;34576;0.000;0.000;2022-11-25T05:51:44;96551.88;;;16.80;70.15
48774;BME280;34576;0.000;0.000;2022-11-25T05:58:46;96556.41;;;16.74;71.11
48774;BME280;34576;0.000;0.000;2022-11-25T06:05:47;96572.34;;;16.74;70.06
48774;BME280;34576;0.000;0.000;2022-11-25T06:12:47;96558.78;;;16.76;70.48
48774;BME280;34576;0.000;0.000;2022-11-25T06:19:48;96558.00;;;16.75;69.55
48774;BME280;34576;0.000;0.000;2022-11-25T06:26:49;96573.91;;;14.50;60.10
48774;BME280;34576;0.000;0.000;2022-11-25T06:33:50;96581.16;;;14.23;55.53
48774;BME280;34576;0.000;0.000;2022-11-25T06:40:51;96577.84;;;14.05;55.99
48774;BME280;34576;0.000;0.000;2022-11-25T06:47:51;96601.69;;;13.83;54.75
48774;BME280;34576;0.000;0.000;2022-11-25T06:54:51;96600.91;;;13.83;55.13
48774;BME280;34576;0.000;0.000;2022-11-25T07:01:52;96622.22;;;13.49;54.46
48774;BME280;34576;0.000;0.000;2022-11-25T07:08:53;96627.69;;;13.64;54.21
48774;BME280;34576;0.000;0.000;2022-11-25T07:15:53;96618.97;;;13.41;55.18
48774;BME280;34576;0.000;0.000;2022-11-25T07:22:53;96638.03;;;13.26;55.67
48774;BME280;34576;0.000;0.000;2022-11-25T07:29:54;96648.53;;;13.38;55.39
48774;BME280;34576;0.000;0.000;2022-11-25T07:36:54;96655.66;;;13.21;55.94
48774;BME280;34576;0.000;0.000;2022-11-25T07:43:55;96658.66;;;13.46;55.18
48774;BME280;34576;0.000;0.000;2022-11-25T07:50:57;96674.72;;;13.23;56.48
48774;BME280;34576;0.000;0.000;2022-11-25T07:57:57;96686.25;;;13.17;56.78
48774;BME280;34576;0.000;0.000;2022-11-25T08:04:58;96698.00;;;13.26;56.57
48774;BME280;34576;0.000;0.000;2022-11-25T08:11:58;96702.88;;;13.34;56.82
48774;BME280;34576;0.000;0.000;2022-11-25T08:18:59;96704.88;;;13.27;57.33
48774;BME280;34576;0.000;0.000;2022-11-25T08:26:07;96717.38;;;13.32;57.69
48774;BME280;34576;0.000;0.000;2022-11-25T08:33:07;96721.47;;;14.93;57.33
48774;BME280;34576;0.000;0.000;2022-11-25T08:40:08;96730.72;;;15.28;58.11
48774;BME280;34576;0.000;0.000;2022-11-25T08:47:09;96725.16;;;15.34;59.53
48774;BME280;34576;0.000;0.000;2022-11-25T08:54:09;96717.53;;;15.43;60.00
48774;BME280;34576;0.000;0.000;2022-11-25T09:01:10;96734.78;;;15.46;60.71
48774;BME280;34576;0.000;0.000;2022-11-25T09:08:11;96737.72;;;15.49;61.35
48774;BME280;34576;0.000;0.000;2022-11-25T09:15:11;96746.22;;;15.51;61.80
48774;BME280;34576;0.000;0.000;2022-11-25T09:22:11;96755.25;;;15.56;62.08
48774;BME280;34576;0.000;0.000;2022-11-25T09:29:12;96756.59;;;15.58;62.66
48774;BME280;34576;0.000;0.000;2022-11-25T09:36:13;96755.53;;;15.59;62.96
48774;BME280;34576;0.000;0.000;2022-11-25T09:43:19;96751.03;;;15.60;63.36
48774;BME280;34576;0.000;0.000;2022-11-25T09:50:47;96754.50;;;15.65;63.45
48774;BME280;34576;0.000;0.000;2022-11-25T10:05:05;96737.81;;;15.70;63.75
48774;BME280;34576;0.000;0.000;2022-11-25T10:12:17;96734.63;;;15.68;64.19
48774;BME280;34576;0.000;0.000;2022-11-25T10:26:41;96735.16;;;15.70;64.58
48774;BME280;34576;0.000;0.000;2022-11-25T10:33:52;96732.53;;;15.75;64.64
48774;BME280;34576;0.000;0.000;2022-11-25T10:40:53;96728.03;;;15.76;64.97
48774;BME280;34576;0.000;0.000;2022-11-25T10:47:59;96730.94;;;15.74;65.11
48774;BME280;34576;0.000;0.000;2022-11-25T10:55:07;96734.94;;;15.77;65.19
48774;BME280;34576;0.000;0.000;2022-11-25T11:02:16;96741.28;;;15.76;65.30
48774;BME280;34576;0.000;0.000;2022-11-25T11:09:51;96760.66;;;15.76;65.43
48774;BME280;34576;0.000;0.000;2022-11-25T11:16:52;96767.53;;;15.77;65.60
48774;BME280;34576;0.000;0.000;2022-11-25T11:23:53;96771.81;;;15.78;65.71
48774;BME280;34576;0.000;0.000;2022-11-25T11:30:59;96772.84;;;15.77;65.81
48774;BME280;34576;0.000;0.000;2022-11-25T11:38:01;96786.38;;;15.76;65.87
48774;BME280;34576;0.000;0.000;2022-11-25T11:52:19;96798.84;;;15.75;66.09
48774;BME280;34576;0.000;0.000;2022-11-25T12:06:32;96802.03;;;15.72;66.37
48774;BME280;34576;0.000;0.000;2022-11-25T12:13:35;96808.91;;;15.73;66.17
48774;BME280;34576;0.000;0.000;2022-11-25T12:20:41;96813.41;;;15.73;66.29
48774;BME280;34576;0.000;0.000;2022-11-25T12:27:56;96818.19;;;15.76;66.29
48774;BME280;34576;0.000;0.000;2022-11-25T12:35:02;96837.31;;;15.78;66.10
48774;BME280;34576;0.000;0.000;2022-11-25T12:42:09;96838.06;;;15.73;66.50
48774;BME280;34576;0.000;0.000;2022-11-25T12:49:14;96852.41;;;15.72;66.45
48774;BME280;34576;0.000;0.000;2022-11-25T12:56:21;96863.81;;;15.73;66.45
48774;BME280;34576;0.000;0.000;2022-11-25T13:10:55;96865.41;;;15.74;66.46
48774;BME280;34576;0.000;0.000;2022-11-25T13:18:01;96870.19;;;15.77;66.74
48774;BME280;34576;0.000;0.000;2022-11-25T13:25:16;96875.75;;;15.75;66.84
48774;BME280;34576;0.000;0.000;2022-11-25T13:53:37;96928.84;;;15.80;66.45
48774;BME280;34576;0.000;0.000;2022-11-25T14:01:21;96937.66;;;15.86;66.47
48774;BME280;34576;0.000;0.000;2022-11-25T14:29:47;96964.41;;;15.79;66.77
48774;BME280;34576;0.000;0.000;2022-11-25T14:36:55;96967.84;;;15.80;66.83
48774;BME280;34576;0.000;0.000;2022-11-25T14:44:00;96981.91;;;15.80;66.64
48774;BME280;34576;0.000;0.000;2022-11-25T14:51:06;96986.16;;;15.81;66.84
48774;BME280;34576;0.000;0.000;2022-11-25T14:58:08;97020.59;;;15.76;66.92
48774;BME280;34576;0.000;0.000;2022-11-25T15:05:15;97027.47;;;15.77;66.77
48774;BME280;34576;0.000;0.000;2022-11-25T15:12:17;97043.38;;;15.77;66.72
48774;BME280;34576;0.000;0.000;2022-11-25T15:19:19;97058.03;;;15.80;66.68
48774;BME280;34576;0.000;0.000;2022-11-25T15:26:21;97068.34;;;15.76;67.10
48774;BME280;34576;0.000;0.000;2022-11-25T15:33:22;97074.09;;;15.68;67.16
48774;BME280;34576;0.000;0.000;2022-11-25T15:40:33;97088.91;;;15.69;67.07
48774;BME280;34576;0.000;0.000;2022-11-25T15:47:37;97097.44;;;15.71;67.04
48774;BME280;34576;0.000;0.000;2022-11-25T15:55:15;97106.19;;;15.71;67.02
48774;BME280;34576;0.000;0.000;2022-11-25T16:02:26;97116.00;;;15.71;66.99
48774;BME280;34576;0.000;0.000;2022-11-25T16:09:24;97108.84;;;15.71;66.83
48774;BME280;34576;0.000;0.000;2022-11-25T16:16:29;97118.41;;;15.73;66.72
48774;BME280;34576;0.000;0.000;2022-11-25T16:23:38;97132.78;;;15.77;66.59
48774;BME280;34576;0.000;0.000;2022-11-25T16:30:39;97133.78;;;15.70;66.98
48774;BME280;34576;0.000;0.000;2022-11-25T16:37:39;97132.47;;;15.73;66.72
48774;BME280;34576;0.000;0.000;2022-11-25T16:44:40;97145.25;;;15.76;66.65
48774;BME280;34576;0.000;0.000;2022-11-25T16:51:40;97157.69;;;15.76;66.65
48774;BME280;34576;0.000;0.000;2022-11-25T16:58:41;97157.41;;;15.72;66.62
48774;BME280;34576;0.000;0.000;2022-11-25T17:05:42;97178.91;;;15.76;66.63
48774;BME280;34576;0.000;0.000;2022-11-25T17:12:44;97182.38;;;15.76;66.69
48774;BME280;34576;0.000;0.000;2022-11-25T17:19:46;97180.53;;;15.77;66.48
48774;BME280;34576;0.000;0.000;2022-11-25T17:26:47;97198.31;;;15.76;66.57
48774;BME280;34576;0.000;0.000;2022-11-25T17:33:49;97222.19;;;15.76;66.54
48774;BME280;34576;0.000;0.000;2022-11-25T17:40:49;97232.22;;;15.74;66.74
48774;BME280;34576;0.000;0.000;2022-11-25T17:47:50;97240.16;;;15.74;66.51
48774;BME280;34576;0.000;0.000;2022-11-25T17:54:50;97244.69;;;15.74;66.56
48774;BME280;34576;0.000;0.000;2022-11-25T18:01:50;97256.34;;;15.73;66.68
48774;BME280;34576;0.000;0.000;2022-11-25T18:08:51;97272.50;;;15.71;66.69
48774;BME280;34576;0.000;0.000;2022-11-25T18:15:51;97286.81;;;15.70;66.71
48774;BME280;34576;0.000;0.000;2022-11-25T18:22:51;97289.94;;;15.67;66.65
48774;BME280;34576;0.000;0.000;2022-11-25T18:29:52;97298.78;;;15.73;66.49
48774;BME280;34576;0.000;0.000;2022-11-25T18:36:53;97303.75;;;15.69;66.53
48774;BME280;34576;0.000;0.000;2022-11-25T18:43:53;97314.44;;;15.74;66.59
48774;BME280;34576;0.000;0.000;2022-11-25T18:50:54;97313.81;;;15.67;66.78
48774;BME280;34576;0.000;0.000;2022-11-25T18:57:55;97327.06;;;15.67;66.78
48774;BME280;34576;0.000;0.000;2022-11-25T19:04:55;97339.84;;;15.70;66.58
48774;BME280;34576;0.000;0.000;2022-11-25T19:11:57;97346.44;;;15.67;66.65
48774;BME280;34576;0.000;0.000;2022-11-25T19:18:58;97369.50;;;15.67;66.61
48774;BME280;34576;0.000;0.000;2022-11-25T19:25:59;97372.72;;;15.69;66.48
48774;BME280;34576;0.000;0.000;2022-11-25T19:33:00;97394.75;;;15.69;66.67
48774;BME280;34576;0.000;0.000;2022-11-25T19:40:04;97398.44;;;15.68;66.56
48774;BME280;34576;0.000;0.000;2022-11-25T19:47:15;97409.28;;;15.67;66.75
48774;BME280;34576;0.000;0.000;2022-11-25T19:54:16;97422.00;;;15.65;66.75
48774;BME280;34576;0.000;0.000;2022-11-25T20:01:17;97433.41;;;15.65;66.75
48774;BME280;34576;0.000;0.000;2022-11-25T20:08:26;97443.22;;;15.65;66.59
48774;BME280;34576;0.000;0.000;2022-11-25T20:15:26;97462.25;;;15.62;66.66
48774;BME280;34576;0.000;0.000;2022-11-25T20:22:28;97469.75;;;15.65;66.70
48774;BME280;34576;0.000;0.000;2022-11-25T20:29:29;97483.56;;;15.67;66.62
48774;BME280;34576;0.000;0.000;2022-11-25T20:36:30;97488.38;;;15.70;66.88
48774;BME280;34576;0.000;0.000;2022-11-25T20:43:35;97486.31;;;15.72;67.66
48774;BME280;34576;0.000;0.000;2022-11-25T20:50:37;97501.44;;;15.88;68.19
48774;BME280;34576;0.000;0.000;2022-11-25T20:57:38;97516.88;;;15.92;68.44
48774;BME280;34576;0.000;0.000;2022-11-25T21:04:38;97521.13;;;15.93;68.69
48774;BME280;34576;0.000;0.000;2022-11-25T21:11:38;97509.88;;;15.85;69.59
48774;BME280;34576;0.000;0.000;2022-11-25T21:18:38;97525.91;;;15.91;69.43
48774;BME280;34576;0.000;0.000;2022-11-25T21:25:40;97541.09;;;15.95;69.44
48774;BME280;34576;0.000;0.000;2022-11-25T21:32:40;97536.34;;;15.97;69.36
48774;BME280;34576;0.000;0.000;2022-11-25T21:39:41;97544.06;;;15.99;69.63
48774;BME280;34576;0.000;0.000;2022-11-25T21:46:41;97539.09;;;16.02;69.78
48774;BME280;34576;0.000;0.000;2022-11-25T21:53:41;97553.72;;;16.05;69.79
48774;BME280;34576;0.000;0.000;2022-11-25T22:00:42;97550.97;;;16.17;70.17
48774;BME280;34576;0.000;0.000;2022-11-25T22:07:42;97567.06;;;16.27;70.34
48774;BME280;34576;0.000;0.000;2022-11-25T22:14:42;97570.94;;;16.19;70.81
48774;BME280;34576;0.000;0.000;2022-11-25T22:21:43;97584.75;;;16.21;70.81
48774;BME280;34576;0.000;0.000;2022-11-25T22:28:44;97556.13;;;16.24;71.08
48774;BME280;34576;0.000;0.000;2022-11-25T22:35:46;97563.84;;;16.25;71.12
48774;BME280;34576;0.000;0.000;2022-11-25T22:42:46;97569.47;;;16.29;71.26
48774;BME280;34576;0.000;0.000;2022-11-25T22:49:48;97574.00;;;16.28;71.53
48774;BME280;34576;0.000;0.000;2022-11-25T22:56:48;97580.44;;;16.32;71.46
48774;BME280;34576;0.000;0.000;2022-11-25T23:03:49;97577.13;;;16.42;70.93
48774;BME280;34576;0.000;0.000;2022-11-25T23:10:49;97583.47;;;16.41;70.94
48774;BME280;34576;0.000;0.000;2022-11-25T23:17:52;97582.50;;;16.47;70.30
48774;BME280;34576;0.000;0.000;2022-11-25T23:24:52;97597.47;;;16.53;69.26
48774;BME280;34576;0.000;0.000;2022-11-25T23:31:53;97594.56;;;16.55;68.56
48774;BME280;34576;0.000;0.000;2022-11-25T23:39:00;97591.69;;;16.56;68.00
48774;BME280;34576;0.000;0.000;2022-11-25T23:46:01;97602.31;;;16.56;68.63
48774;BME280;34576;0.000;0.000;2022-11-25T23:53:02;97602.84;;;16.59;67.57
